createdAt,value
2018-10-19T00:02:11.462Z,84.49
2018-10-19T00:04:40.667Z,84.66
2018-10-19T00:07:08.964Z,85.00
2018-10-19T00:09:37.440Z,84.64
2018-10-19T00:12:06.678Z,84.43
2018-10-19T00:14:34.951Z,84.56
2018-10-19T00:17:03.314Z,84.50
2018-10-19T00:19:45.694Z,84.64
2018-10-19T00:22:13.962Z,85.04
2018-10-19T00:24:42.231Z,85.63
2018-10-19T00:27:10.592Z,85.62
2018-10-19T00:29:38.808Z,86.10
2018-10-19T00:32:07.111Z,86.36
2018-10-19T00:34:35.383Z,87.04
2018-10-19T00:37:03.754Z,87.39
2018-10-19T00:39:32.036Z,87.05
2018-10-19T00:42:00.319Z,86.35
2018-10-19T00:44:28.592Z,86.91
2018-10-19T00:46:56.896Z,86.46
2018-10-19T00:49:25.164Z,87.09
2018-10-19T00:51:53.458Z,86.96
2018-10-19T00:54:21.723Z,87.03
2018-10-19T00:56:50.004Z,87.81
2018-10-19T00:59:18.291Z,87.89
2018-10-19T01:01:46.587Z,87.73
2018-10-19T01:04:14.875Z,86.98
2018-10-19T01:06:43.148Z,86.82
2018-10-19T01:09:11.991Z,86.64
2018-10-19T01:11:40.243Z,86.61
2018-10-19T01:14:08.526Z,85.84
2018-10-19T01:16:36.799Z,86.66
2018-10-19T01:19:05.359Z,86.47
2018-10-19T01:21:33.632Z,87.00
2018-10-19T01:24:01.967Z,87.51
2018-10-19T01:26:30.234Z,86.94
2018-10-19T01:28:58.547Z,87.67
2018-10-19T01:31:26.804Z,87.72
2018-10-19T01:33:55.090Z,86.92
2018-10-19T01:36:27.536Z,87.49
2018-10-19T01:38:55.846Z,87.28
2018-10-19T01:41:24.123Z,87.01
2018-10-19T01:43:52.403Z,86.99
2018-10-19T01:46:20.691Z,87.38
2018-10-19T01:48:49.000Z,87.30
2018-10-19T01:51:17.356Z,87.02
2018-10-19T01:53:45.587Z,87.25
2018-10-19T01:56:13.852Z,87.34
2018-10-19T01:58:42.613Z,87.75
2018-10-19T02:01:10.871Z,87.22
2018-10-19T02:03:39.192Z,87.52
2018-10-19T02:06:07.487Z,87.86
2018-10-19T02:08:35.771Z,88.22
2018-10-19T02:11:04.039Z,88.34
2018-10-19T02:13:32.338Z,88.31
2018-10-19T02:16:00.615Z,88.84
2018-10-19T02:18:28.904Z,89.37
2018-10-19T02:20:57.229Z,89.68
2018-10-19T02:23:25.492Z,89.77
2018-10-19T02:25:53.828Z,90.05
2018-10-19T02:28:22.143Z,90.35
2018-10-19T02:30:50.439Z,90.66
2018-10-19T02:33:18.802Z,91.23
2018-10-19T02:35:47.027Z,90.71
2018-10-19T02:38:15.320Z,91.27
2018-10-19T02:40:43.604Z,91.29
2018-10-19T02:43:12.002Z,91.27
2018-10-19T02:45:41.827Z,90.89
2018-10-19T02:48:10.879Z,90.72
2018-10-19T02:50:39.176Z,90.05
2018-10-19T02:53:07.559Z,89.45
2018-10-19T02:55:35.859Z,89.21
2018-10-19T02:58:04.187Z,88.94
2018-10-19T03:00:32.487Z,89.38
2018-10-19T03:03:00.828Z,89.23
2018-10-19T03:05:29.081Z,89.32
2018-10-19T03:07:57.386Z,89.09
2018-10-19T03:10:25.675Z,88.81
2018-10-19T03:12:53.947Z,89.37
2018-10-19T03:15:22.259Z,89.00
2018-10-19T03:19:19.689Z,89.23
2018-10-19T03:21:47.955Z,89.46
2018-10-19T03:24:16.253Z,89.39
2018-10-19T03:26:44.532Z,89.45
2018-10-19T03:29:12.852Z,90.03
2018-10-19T03:31:41.141Z,90.33
2018-10-19T03:34:09.469Z,89.73
2018-10-19T03:36:37.734Z,90.77
2018-10-19T03:39:07.260Z,91.16
2018-10-19T03:41:35.508Z,90.79
2018-10-19T03:44:03.795Z,90.59
2018-10-19T03:46:32.106Z,90.69
2018-10-19T03:49:00.388Z,91.22
2018-10-19T03:51:28.683Z,91.32
2018-10-19T03:53:56.963Z,91.25
2018-10-19T03:56:25.252Z,91.47
2018-10-19T03:58:53.529Z,91.58
2018-10-19T04:01:21.832Z,90.99
2018-10-19T04:03:50.107Z,91.75
2018-10-19T04:06:18.411Z,91.57
2018-10-19T04:08:47.091Z,91.53
2018-10-19T04:11:15.438Z,91.26
2018-10-19T04:13:44.064Z,91.22
2018-10-19T04:16:12.517Z,91.20
2018-10-19T04:18:40.794Z,91.72
2018-10-19T04:21:09.173Z,91.28
2018-10-19T04:23:37.492Z,91.41
2018-10-19T04:26:06.074Z,92.17
2018-10-19T04:28:34.359Z,91.88
2018-10-19T04:31:02.668Z,92.33
2018-10-19T04:33:31.407Z,92.38
2018-10-19T04:35:59.696Z,92.57
2018-10-19T04:38:27.972Z,92.67
2018-10-19T04:40:56.332Z,92.08
2018-10-19T04:43:27.504Z,91.69
2018-10-19T04:45:55.849Z,91.48
2018-10-19T04:48:24.126Z,90.83
2018-10-19T04:50:52.453Z,91.12
2018-10-19T04:53:20.748Z,91.11
2018-10-19T04:55:49.035Z,90.55
2018-10-19T04:58:17.303Z,90.83
2018-10-19T05:00:45.604Z,91.52
2018-10-19T05:03:13.962Z,90.93
2018-10-19T05:05:42.257Z,90.92
2018-10-19T05:08:10.543Z,90.95
2018-10-19T05:10:38.788Z,90.76
2018-10-19T05:13:07.170Z,90.99
2018-10-19T05:15:35.412Z,91.14
2018-10-19T05:18:04.024Z,90.91
2018-10-19T05:20:32.303Z,90.51
2018-10-19T05:23:00.659Z,90.41
2018-10-19T05:25:28.907Z,90.86
2018-10-19T05:27:57.219Z,90.57
2018-10-19T05:30:25.818Z,90.27
2018-10-19T05:32:54.211Z,90.71
2018-10-19T05:35:22.451Z,91.07
2018-10-19T05:37:50.747Z,91.10
2018-10-19T05:40:19.053Z,91.30
2018-10-19T05:42:47.356Z,91.62
2018-10-19T05:45:15.643Z,91.39
2018-10-19T05:47:43.948Z,91.35
2018-10-19T05:50:12.842Z,90.63
2018-10-19T05:52:41.064Z,90.75
2018-10-19T05:55:10.191Z,90.34
2018-10-19T05:57:38.683Z,90.58
2018-10-19T06:00:08.136Z,90.51
2018-10-19T06:02:36.489Z,90.50
2018-10-19T06:05:05.058Z,90.43
2018-10-19T06:07:33.336Z,90.46
2018-10-19T06:10:01.616Z,90.52
2018-10-19T06:12:29.917Z,90.15
2018-10-19T06:14:58.247Z,89.66
2018-10-19T06:17:26.572Z,89.50
2018-10-19T06:19:54.881Z,89.51
2018-10-19T06:22:23.216Z,89.50
2018-10-19T06:24:51.503Z,88.90
2018-10-19T06:27:20.063Z,88.76
2018-10-19T06:29:48.512Z,88.71
2018-10-19T06:32:17.214Z,87.83
2018-10-19T06:34:45.531Z,88.14
2018-10-19T06:37:13.829Z,87.66
2018-10-19T06:39:42.243Z,87.84
2018-10-19T06:42:10.613Z,86.78
2018-10-19T06:44:38.911Z,87.02
2018-10-19T06:47:07.436Z,86.68
2018-10-19T06:49:35.714Z,86.01
2018-10-19T06:52:04.038Z,85.43
2018-10-19T06:54:32.371Z,85.10
2018-10-19T06:57:00.696Z,84.29
2018-10-19T06:59:29.109Z,83.25
2018-10-19T07:01:57.411Z,83.44
2018-10-19T07:04:25.676Z,82.77
2018-10-19T07:06:53.999Z,82.98
2018-10-19T07:09:22.529Z,82.85
2018-10-19T07:11:50.857Z,82.14
2018-10-19T07:14:19.156Z,82.69
2018-10-19T07:16:47.597Z,83.00
2018-10-19T07:19:15.912Z,82.10
2018-10-19T07:21:44.286Z,81.40
2018-10-19T07:24:12.788Z,80.81
2018-10-19T07:26:41.111Z,80.99
2018-10-19T07:29:09.516Z,79.74
2018-10-19T07:31:37.769Z,80.42
2018-10-19T07:34:06.095Z,79.44
2018-10-19T07:36:34.554Z,80.29
2018-10-19T07:39:02.855Z,79.61
2018-10-19T07:41:31.171Z,79.63
2018-10-19T07:43:59.528Z,80.23
2018-10-19T07:46:27.799Z,79.30
2018-10-19T07:48:56.119Z,78.54
2018-10-19T07:51:24.468Z,77.79
2018-10-19T07:53:52.841Z,76.29
2018-10-19T07:56:21.131Z,77.11
2018-10-19T07:58:49.432Z,75.73
2018-10-19T08:01:17.833Z,75.93
2018-10-19T08:03:46.056Z,74.35
2018-10-19T08:06:14.386Z,74.16
2018-10-19T08:08:42.703Z,75.54
2018-10-19T08:11:11.201Z,75.31
2018-10-19T08:13:39.475Z,76.69
2018-10-19T08:16:07.776Z,75.12
2018-10-19T08:18:36.085Z,75.63
2018-10-19T08:21:04.961Z,74.55
2018-10-19T08:23:33.230Z,71.88
2018-10-19T08:26:01.885Z,72.13
2018-10-19T08:28:30.146Z,69.38
2018-10-19T08:30:58.447Z,68.84
2018-10-19T08:33:26.809Z,67.18
2018-10-19T08:35:55.113Z,61.31
2018-10-19T08:38:23.430Z,58.17
2018-10-19T08:40:51.885Z,53.56
2018-10-19T08:43:21.232Z,48.41
2018-10-19T08:45:49.522Z,44.30
2018-10-19T08:48:17.859Z,41.83
2018-10-19T08:50:46.152Z,42.25
2018-10-19T08:53:14.534Z,40.74
2018-10-19T08:55:42.819Z,39.83
2018-10-19T08:58:11.171Z,37.74
2018-10-19T09:00:39.443Z,38.23
2018-10-19T09:03:07.756Z,40.14
2018-10-19T09:05:36.063Z,42.46
2018-10-19T09:08:04.383Z,40.60
2018-10-19T09:10:32.675Z,37.01
2018-10-19T09:13:00.987Z,34.49
2018-10-19T09:15:29.292Z,35.42
2018-10-19T09:17:57.592Z,37.06
2018-10-19T09:20:25.883Z,37.45
2018-10-19T09:22:54.604Z,37.17
2018-10-19T09:25:22.931Z,37.97
2018-10-19T09:27:51.250Z,38.90
2018-10-19T09:30:19.596Z,40.45
2018-10-19T09:32:47.931Z,41.84
2018-10-19T09:35:16.342Z,44.63
2018-10-19T09:37:44.567Z,46.38
2018-10-19T09:40:12.882Z,49.07
2018-10-19T09:42:41.213Z,50.08
2018-10-19T09:45:09.953Z,48.43
2018-10-19T09:47:38.267Z,44.60
2018-10-19T09:50:07.106Z,46.42
2018-10-19T09:52:36.147Z,47.45
2018-10-19T09:55:05.117Z,47.71
2018-10-19T09:57:33.367Z,48.19
2018-10-19T10:00:01.687Z,50.20
2018-10-19T10:02:30.003Z,51.03
2018-10-19T10:04:58.367Z,51.68
2018-10-19T10:07:27.063Z,53.44
2018-10-19T10:09:55.603Z,53.59
2018-10-19T10:12:23.899Z,54.02
2018-10-19T10:14:52.314Z,52.94
2018-10-19T10:17:20.527Z,52.87
2018-10-19T10:19:48.839Z,52.91
2018-10-19T10:22:17.227Z,53.53
2018-10-19T10:24:45.578Z,52.34
2018-10-19T10:27:13.837Z,50.67
2018-10-19T10:29:42.147Z,47.65
2018-10-19T10:32:10.488Z,48.00
2018-10-19T10:34:39.068Z,50.02
2018-10-19T10:37:07.394Z,50.90
2018-10-19T10:39:35.751Z,49.11
2018-10-19T10:42:04.430Z,46.73
2018-10-19T10:44:32.754Z,43.82
2018-10-19T10:47:01.055Z,44.04
2018-10-19T10:49:29.385Z,44.29
2018-10-19T10:51:57.735Z,44.35
2018-10-19T10:54:26.042Z,45.49
2018-10-19T10:56:54.358Z,42.40
2018-10-19T10:59:22.675Z,35.97
2018-10-19T11:01:50.984Z,34.75
2018-10-19T11:04:19.332Z,33.20
2018-10-19T11:06:47.635Z,30.82
2018-10-19T11:09:16.579Z,31.68
2018-10-19T11:11:44.887Z,28.11
2018-10-19T11:14:13.232Z,28.44
2018-10-19T11:16:41.543Z,25.91
2018-10-19T11:19:09.969Z,28.03
2018-10-19T11:21:38.383Z,28.29
2018-10-19T11:24:06.744Z,28.91
2018-10-19T11:26:35.056Z,26.94
2018-10-19T11:29:03.363Z,24.99
2018-10-19T11:31:31.698Z,27.48
2018-10-19T11:34:00.023Z,26.55
2018-10-19T11:36:28.408Z,23.05
2018-10-19T11:38:56.733Z,25.18
2018-10-19T11:41:25.051Z,22.91
2018-10-19T11:43:53.344Z,21.99
2018-10-19T11:46:21.900Z,23.46
2018-10-19T11:48:50.343Z,24.06
2018-10-19T11:51:18.908Z,24.63
2018-10-19T11:53:47.220Z,29.48
2018-10-19T11:56:15.547Z,29.82
2018-10-19T11:58:43.855Z,32.65
2018-10-19T12:01:12.246Z,32.49
2018-10-19T12:03:40.584Z,35.30
2018-10-19T12:06:08.859Z,41.26
2018-10-19T12:08:37.163Z,39.72
2018-10-19T12:11:05.995Z,41.77
2018-10-19T12:13:34.303Z,36.97
2018-10-19T12:16:02.623Z,36.30
2018-10-19T12:18:30.963Z,33.37
2018-10-19T12:20:59.373Z,28.96
2018-10-19T12:23:27.631Z,26.17
2018-10-19T12:25:56.009Z,23.86
2018-10-19T12:28:24.275Z,25.44
2018-10-19T12:30:52.600Z,26.88
2018-10-19T12:33:20.910Z,25.79
2018-10-19T12:35:49.232Z,25.25
2018-10-19T12:38:17.535Z,24.74
2018-10-19T12:40:45.883Z,25.17
2018-10-19T12:43:14.254Z,28.73
2018-10-19T12:46:51.539Z,32.28
2018-10-19T12:49:22.131Z,37.64
2018-10-19T12:51:50.477Z,40.48
2018-10-19T12:54:18.950Z,42.44
2018-10-19T12:56:47.202Z,45.01
2018-10-19T12:59:15.602Z,45.50
2018-10-19T13:01:43.931Z,44.83
2018-10-19T13:04:12.244Z,37.52
2018-10-19T13:06:40.548Z,32.72
2018-10-19T13:09:10.791Z,31.43
2018-10-19T13:11:39.167Z,30.60
2018-10-19T13:14:07.479Z,30.50
2018-10-19T13:16:35.792Z,32.18
2018-10-19T13:19:04.160Z,33.25
2018-10-19T13:21:32.455Z,34.44
2018-10-19T13:24:00.805Z,34.99
2018-10-19T13:26:29.111Z,37.65
2018-10-19T13:28:57.421Z,38.03
2018-10-19T13:31:25.730Z,36.67
2018-10-19T13:33:54.216Z,33.15
2018-10-19T13:36:22.557Z,33.33
2018-10-19T13:38:50.859Z,37.43
2018-10-19T13:41:19.213Z,39.55
2018-10-19T13:43:47.502Z,42.08
2018-10-19T13:46:15.862Z,42.99
2018-10-19T13:48:44.155Z,45.84
2018-10-19T13:51:12.623Z,46.53
2018-10-19T13:53:40.817Z,47.93
2018-10-19T13:56:09.135Z,47.72
2018-10-19T13:58:37.444Z,48.21
2018-10-19T14:01:06.552Z,50.30
2018-10-19T14:03:34.847Z,51.47
2018-10-19T14:06:03.172Z,51.49
2018-10-19T14:08:31.467Z,51.45
2018-10-19T14:10:59.806Z,52.18
2018-10-19T14:13:28.100Z,51.67
2018-10-19T14:15:56.408Z,50.89
2018-10-19T14:18:24.731Z,50.99
2018-10-19T14:20:53.050Z,47.80
2018-10-19T14:23:21.363Z,45.90
2018-10-19T14:25:49.687Z,43.93
2018-10-19T14:28:18.011Z,45.32
2018-10-19T14:30:46.333Z,45.88
2018-10-19T14:33:14.745Z,45.81
2018-10-19T14:35:42.974Z,47.11
2018-10-19T14:38:11.316Z,45.90
2018-10-19T14:40:39.614Z,48.66
2018-10-19T14:43:08.639Z,49.47
2018-10-19T14:45:36.952Z,50.69
2018-10-19T14:48:05.312Z,51.46
2018-10-19T14:50:35.102Z,50.74
2018-10-19T14:53:03.462Z,52.57
2018-10-19T14:55:32.100Z,53.38
2018-10-19T14:58:00.414Z,54.81
2018-10-19T15:00:28.735Z,55.62
2018-10-19T15:02:57.248Z,57.35
2018-10-19T15:05:25.525Z,57.85
2018-10-19T15:07:53.856Z,58.22
2018-10-19T15:10:23.084Z,58.58
2018-10-19T15:12:51.763Z,57.72
2018-10-19T15:15:22.369Z,57.10
2018-10-19T15:17:50.932Z,55.96
2018-10-19T15:20:19.895Z,57.35
2018-10-19T15:22:48.227Z,57.74
2018-10-19T15:25:16.533Z,55.43
2018-10-19T15:27:45.985Z,53.44
2018-10-19T15:30:16.068Z,52.13
2018-10-19T15:32:44.303Z,53.11
2018-10-19T15:35:12.611Z,52.20
2018-10-19T15:37:41.230Z,52.13
2018-10-19T15:40:10.211Z,53.80
2018-10-19T15:42:38.738Z,54.73
2018-10-19T15:45:08.738Z,57.13
2018-10-19T15:47:37.037Z,58.85
2018-10-19T15:50:05.498Z,59.27
2018-10-19T15:52:33.812Z,60.19
2018-10-19T15:55:02.139Z,62.98
2018-10-19T15:57:30.496Z,64.02
2018-10-19T15:59:58.853Z,64.85
2018-10-19T16:02:27.119Z,65.09
2018-10-19T16:04:55.422Z,65.10
2018-10-19T16:07:23.733Z,66.35
2018-10-19T16:09:52.041Z,67.05
2018-10-19T16:12:20.366Z,68.06
2018-10-19T16:14:48.689Z,68.97
2018-10-19T16:17:16.999Z,69.46
2018-10-19T16:19:45.303Z,70.38
2018-10-19T16:22:13.635Z,71.10
2018-10-19T16:24:41.975Z,71.12
2018-10-19T16:27:10.304Z,71.13
2018-10-19T16:29:39.010Z,72.03
2018-10-19T16:32:07.798Z,72.90
2018-10-19T16:34:36.266Z,73.18
2018-10-19T16:37:04.696Z,73.27
2018-10-19T16:39:32.979Z,74.24
2018-10-19T16:42:01.334Z,75.25
2018-10-19T16:44:29.599Z,74.72
2018-10-19T16:46:58.531Z,74.78
2018-10-19T16:49:26.833Z,75.12
2018-10-19T16:51:55.147Z,74.64
2018-10-19T16:54:23.479Z,75.32
2018-10-19T16:56:51.790Z,75.83
2018-10-19T16:59:20.107Z,76.47
2018-10-19T17:01:48.404Z,77.37
2018-10-19T17:04:16.862Z,78.23
2018-10-19T17:06:45.160Z,78.94
2018-10-19T17:09:14.398Z,78.44
2018-10-19T17:11:43.059Z,78.19
2018-10-19T17:14:11.652Z,77.98
2018-10-19T17:16:39.983Z,78.20
2018-10-19T17:19:08.746Z,78.17
2018-10-19T17:21:37.107Z,77.91
2018-10-19T17:24:05.549Z,77.90
2018-10-19T17:26:33.894Z,78.13
2018-10-19T17:29:02.251Z,77.93
2018-10-19T17:31:30.705Z,77.43
2018-10-19T17:33:58.996Z,77.98
2018-10-19T17:36:27.288Z,78.33
2018-10-19T17:38:55.604Z,78.53
2018-10-19T17:41:23.952Z,79.06
2018-10-19T17:43:52.288Z,78.05
2018-10-19T17:46:20.582Z,77.57
2018-10-19T17:48:48.940Z,76.83
2018-10-19T17:51:17.295Z,76.69
2018-10-19T17:53:45.572Z,76.01
2018-10-19T17:56:13.852Z,76.60
2018-10-19T17:58:42.176Z,77.16
2018-10-19T18:01:10.491Z,77.31
2018-10-19T18:03:39.262Z,77.11
2018-10-19T18:06:07.594Z,77.22
2018-10-19T18:08:36.232Z,77.50
2018-10-19T18:11:05.023Z,77.55
2018-10-19T18:13:33.331Z,77.94
2018-10-19T18:16:01.692Z,77.65
2018-10-19T18:18:30.108Z,77.44
2018-10-19T18:20:58.392Z,78.74
2018-10-19T18:23:26.833Z,78.49
2018-10-19T18:25:55.061Z,78.35
2018-10-19T18:28:23.348Z,78.46
2018-10-19T18:30:51.679Z,78.91
2018-10-19T18:33:20.004Z,79.63
2018-10-19T18:35:48.303Z,80.00
2018-10-19T18:38:16.761Z,79.78
2018-10-19T18:40:45.435Z,79.78
2018-10-19T18:43:13.730Z,80.05
2018-10-19T18:45:42.007Z,80.16
2018-10-19T18:48:10.340Z,80.98
2018-10-19T18:50:38.670Z,80.99
2018-10-19T18:53:07.050Z,80.56
2018-10-19T18:55:35.263Z,81.08
2018-10-19T18:58:03.615Z,80.80
2018-10-19T19:00:31.890Z,80.64
2018-10-19T19:03:00.278Z,80.15
2018-10-19T19:05:28.579Z,79.85
2018-10-19T19:07:56.926Z,80.60
2018-10-19T19:10:25.186Z,80.82
2018-10-19T19:12:58.567Z,80.21
2018-10-19T19:15:27.161Z,79.73
2018-10-19T19:17:55.451Z,79.91
2018-10-19T19:20:25.612Z,81.02
2018-10-19T19:22:53.945Z,80.96
2018-10-19T19:25:27.407Z,80.58
2018-10-19T19:27:55.708Z,81.04
2018-10-19T19:30:24.123Z,80.82
2018-10-19T19:32:57.724Z,81.28
2018-10-19T19:35:26.049Z,81.19
2018-10-19T19:37:54.367Z,81.17
2018-10-19T19:40:22.680Z,81.51
2018-10-19T19:42:52.603Z,81.69
2018-10-19T19:45:20.915Z,82.27
2018-10-19T19:47:54.300Z,82.01
2018-10-19T19:50:22.595Z,82.27
2018-10-19T19:52:50.975Z,82.33
2018-10-19T19:55:19.332Z,81.49
2018-10-19T19:57:47.612Z,82.65
2018-10-19T20:00:15.913Z,82.97
2018-10-19T20:02:44.223Z,82.61
2018-10-19T20:05:12.552Z,82.55
2018-10-19T20:07:41.067Z,82.82
2018-10-19T20:10:09.392Z,82.71
2018-10-19T20:12:37.858Z,82.95
2018-10-19T20:15:07.587Z,82.65
2018-10-19T20:17:35.927Z,82.82
2018-10-19T20:20:04.310Z,83.60
2018-10-19T20:22:32.600Z,83.15
2018-10-19T20:25:00.872Z,83.13
2018-10-19T20:27:29.174Z,82.94
2018-10-19T20:29:57.443Z,82.57
2018-10-19T20:32:25.802Z,82.17
2018-10-19T20:34:54.213Z,82.70
2018-10-19T20:37:22.519Z,82.84
2018-10-19T20:39:50.803Z,83.50
2018-10-19T20:42:19.116Z,82.98
2018-10-19T20:44:47.416Z,83.26
2018-10-19T20:47:15.981Z,82.41
2018-10-19T20:49:44.203Z,82.41
2018-10-19T20:52:12.506Z,82.38
2018-10-19T20:54:40.811Z,82.31
2018-10-19T20:57:09.316Z,82.46
2018-10-19T20:59:37.616Z,82.38
2018-10-19T21:02:06.191Z,82.72
2018-10-19T21:04:34.439Z,82.87
2018-10-19T21:07:02.807Z,83.06
2018-10-19T21:09:31.122Z,82.83
2018-10-19T21:11:59.439Z,82.84
2018-10-19T21:14:27.727Z,83.27
2018-10-19T21:16:56.057Z,83.34
2018-10-19T21:19:24.399Z,82.53
2018-10-19T21:21:52.650Z,82.88
2018-10-19T21:24:20.936Z,82.58
2018-10-19T21:26:49.402Z,83.15
2018-10-19T21:29:18.024Z,83.26
2018-10-19T21:31:46.419Z,84.52
2018-10-19T21:34:14.704Z,84.09
2018-10-19T21:36:43.083Z,84.35
2018-10-19T21:39:12.227Z,84.52
2018-10-19T21:41:41.027Z,83.85
2018-10-19T21:44:09.377Z,84.16
2018-10-19T21:46:37.996Z,84.51
2018-10-19T21:49:06.496Z,84.34
2018-10-19T21:51:34.986Z,84.23
2018-10-19T21:54:03.286Z,85.01
2018-10-19T21:56:31.699Z,84.54
2018-10-19T21:59:00.034Z,84.83
2018-10-19T22:01:28.860Z,84.53
2018-10-19T22:03:57.163Z,84.78
2018-10-19T22:06:25.443Z,84.50
2018-10-19T22:08:53.735Z,84.78
2018-10-19T22:11:22.620Z,85.51
2018-10-19T22:13:50.891Z,86.03
2018-10-19T22:16:19.171Z,86.92
2018-10-19T22:18:47.455Z,86.78
2018-10-19T22:21:15.740Z,86.60
2018-10-19T22:23:44.061Z,87.14
2018-10-19T22:26:12.395Z,85.84
2018-10-19T22:28:40.651Z,85.54
2018-10-19T22:31:09.096Z,85.68
2018-10-19T22:33:37.361Z,85.61
2018-10-19T22:36:05.682Z,85.44
2018-10-19T22:38:33.992Z,85.63
2018-10-19T22:41:02.311Z,85.07
2018-10-19T22:43:30.627Z,84.49
2018-10-19T22:45:58.920Z,84.95
2018-10-19T22:48:27.235Z,84.85
2018-10-19T22:50:55.519Z,84.81
2018-10-19T22:53:23.816Z,84.86
2018-10-19T22:55:52.107Z,85.00
2018-10-19T22:58:20.443Z,84.27
2018-10-19T23:00:48.731Z,84.22
2018-10-19T23:03:17.026Z,84.24
2018-10-19T23:05:45.500Z,85.13
2018-10-19T23:08:13.807Z,85.63
2018-10-19T23:10:42.588Z,86.16
2018-10-19T23:13:10.988Z,86.22
2018-10-19T23:15:39.240Z,86.26
2018-10-19T23:18:07.565Z,85.91
2018-10-19T23:20:35.863Z,86.28
2018-10-19T23:23:04.233Z,85.62
2018-10-19T23:25:32.508Z,85.60
2018-10-19T23:28:00.804Z,85.79
2018-10-19T23:30:29.116Z,85.16
2018-10-19T23:32:57.542Z,85.60
2018-10-19T23:35:25.829Z,85.25
2018-10-19T23:37:54.108Z,84.54
2018-10-19T23:40:22.432Z,84.85
2018-10-19T23:42:50.716Z,85.09
2018-10-19T23:45:19.039Z,85.11
2018-10-19T23:47:47.351Z,85.48
2018-10-19T23:50:15.667Z,85.21
2018-10-19T23:52:43.938Z,86.20
2018-10-19T23:55:12.535Z,86.00
2018-10-19T23:57:40.771Z,86.04
